Terminal Aerodrome Forecast
Issued by NWS

Home | Current Version | Previous Version | Text Only | Print | Product List | Glossary On
Versions: 1 2 3 4 5 6 7 8 9 10 11 12 13 14 15 16 17 18 19 20 21 22 23 24 25 26 27 28 29 30
000
FTAK31 PANC 270541
TAFADQ
TAF
PADQ 270541Z 2706/2806 07006KT P6SM BKN070
     FM271800 15010KT 6SM -RA OVC020
     FM272100 12015G20KT 3SM -RA BKN005 OVC012
     FM280300 12011KT 3SM -RA OVC005=

USA.gov is the U.S. government's official web portal to all federal, state and local government web resources and services.